• Join FlightAware (Why Join?)
  • Login
  • US Flag 
02:22PM EDT


 

Airport Tracker/Info


-or-


 

Live Flight TrackerFlight Track Log ✈ EGF4039 ✈ 07-Apr-2013 ✈ KALO - KORD

Flight Track Log - Related Links

Times and Time Zones

All times are in EDT time to prevent confusion due to time zone crossing. See the EGF4039 flight status page for this flight to view local times or setup timezone preferences in your user account.

Time Position Orientation Groundspeed Altitude Reporting Facility
EDT Latitude Longitude Course Direction KTS MPH feet Rate Location/Type
05:07PM 42.5406 -92.2094 97° East 239 275 6,300  Level Chicago Center
05:08PM 42.5322 -92.1042 96° East 263 303 8,800 2,580 Climbing Chicago Center
05:09PM 42.4901 -91.7570 97° East  Level FlightAware Approximate
05:09PM 42.5200 -91.9678 97° East 288 331 11,700  Level Chicago Center
05:10PM 42.4828 -91.6278 97° East  Level FlightAware Approximate
05:10PM 42.5064 -91.8453 99° East 320 368 13,700  Level Chicago Center
05:11PM 42.4712 -91.5061 97° East  Level FlightAware Approximate
05:11PM 42.4967 -91.7150 96° East 350 403 15,400  Level Chicago Center
05:12PM 42.4596 -91.3845 97° East  Level FlightAware Approximate
05:12PM 42.4847 -91.5783 97° East 370 426 16,900  Level Chicago Center
05:13PM 42.4786 -91.4053 93° East 393 452 18,800 1,680 Climbing Chicago Center
05:14PM 42.4867 -91.2597 86° East 393 452 20,400 1,500 Climbing Chicago Center
05:15PM 42.4933 -91.1075 87° East 407 468 22,000 1,200 Climbing Chicago Center
05:16PM 42.4997 -90.9494 87° East 423 487 23,000 480 Climbing Chicago Center
05:17PM 42.5067 -90.7775 87° East 457 526 23,000  Level Chicago Center
05:18PM 42.5156 -90.5650 87° East 473 544 23,000  Level Chicago Center
05:19PM 42.5219 -90.3956 87° East 453 521 23,000  Level Chicago Center
05:20PM 42.5247 -90.2506 88° East 393 452 23,000 -60 Level Chicago Center
05:21PM 42.5294 -90.1006 88° East 399 459 22,900 -780 Descending Chicago Center
05:22PM 42.5356 -89.9250 87° East 391 450 21,500 -1,260 Descending Chicago Center
05:23PM 42.5386 -89.7922 88° East 385 443 20,400 -1,260 Descending Chicago Center
05:24PM 42.5433 -89.6542 87° East 372 428 19,000 -1,500 Descending Chicago Center
05:25PM 42.5472 -89.4981 88° East 357 411 17,400 -1,500 Descending Chicago Center
05:26PM 42.5517 -89.3683 87° East 348 400 16,000 -1,260 Descending Chicago Center
05:27PM 42.5550 -89.2411 88° East 341 392 14,800 -1,020 Descending Chicago Center
05:28PM 42.5575 -89.1133 88° East 339 390 14,000 -600 Descending Chicago Center
05:29PM 42.5272 -88.9983 110° East 328 377 13,600 -900 Descending Chicago Center
05:30PM 42.4850 -88.8603 112° Southeast 339 390 12,200 -1,320 Descending Chicago Center
05:31PM 42.4514 -88.7489 112° Southeast 324 373 10,900 -1,200 Descending Chicago Center
05:32PM 42.4178 -88.6386 112° Southeast 319 367 9,700 -960 Descending Chicago Center
05:33PM 42.3836 -88.5308 113° Southeast 313 360 9,000 -360 Descending Chicago Center
05:34PM 42.3147 -88.4722 148° Southeast 307 353 9,000 -480 Level Chicago Center
05:35PM 42.2356 -88.4594 173° South 293 337 8,100 -540 Descending Chicago Center
05:37PM 42.1422 -88.4425 172° South 284 327 8,000 -600 Descending Chicago Center
05:38PM 42.0644 -88.4300 173° South 284 327 6,900 -1,320 Descending Chicago Center
05:39PM 41.9903 -88.4119 170° South 276 318 5,300 -960 Descending Chicago Center
05:40PM 41.9628 -88.3178 111° Southeast 273 314 5,000 -240 Descending Chicago Center
05:41PM 41.9669 -88.2231 87° East 258 297 4,900 -120 Descending Chicago Center